sensor_id;sensor_type;location;lat;lon;timestamp;P1;durP1;ratioP1;P2;durP2;ratioP2
80229;SDS011;69540;42.136;24.742;2024-01-16T16:00:55;2.88;;;2.67;;
80229;SDS011;69540;42.136;24.742;2024-01-16T16:03:21;2.72;;;2.53;;
80229;SDS011;69540;42.136;24.742;2024-01-16T16:05:46;2.65;;;2.45;;
80229;SDS011;69540;42.136;24.742;2024-01-16T16:08:12;2.90;;;2.70;;
80229;SDS011;69540;42.136;24.742;2024-01-16T16:10:37;2.78;;;2.58;;
80229;SDS011;69540;42.136;24.742;2024-01-16T16:13:06;2.38;;;2.28;;
80229;SDS011;69540;42.136;24.742;2024-01-16T16:15:34;3.38;;;2.63;;
80229;SDS011;69540;42.136;24.742;2024-01-16T16:18:00;2.28;;;2.17;;
80229;SDS011;69540;42.136;24.742;2024-01-16T16:20:26;2.90;;;2.70;;
80229;SDS011;69540;42.136;24.742;2024-01-16T16:22:52;2.72;;;2.53;;
80229;SDS011;69540;42.136;24.742;2024-01-16T16:25:18;2.45;;;2.28;;
80229;SDS011;69540;42.136;24.742;2024-01-16T16:27:44;3.05;;;2.80;;
80229;SDS011;69540;42.136;24.742;2024-01-16T16:30:10;2.88;;;2.60;;
80229;SDS011;69540;42.136;24.742;2024-01-16T16:32:36;2.60;;;2.40;;
80229;SDS011;69540;42.136;24.742;2024-01-16T16:35:02;3.17;;;2.88;;
80229;SDS011;69540;42.136;24.742;2024-01-16T16:37:28;2.90;;;2.70;;
80229;SDS011;69540;42.136;24.742;2024-01-16T16:39:54;2.63;;;2.42;;
80229;SDS011;69540;42.136;24.742;2024-01-16T16:42:19;3.40;;;2.70;;
80229;SDS011;69540;42.136;24.742;2024-01-16T16:44:45;2.80;;;2.60;;
80229;SDS011;69540;42.136;24.742;2024-01-16T16:47:11;3.33;;;2.80;;
80229;SDS011;69540;42.136;24.742;2024-01-16T16:49:37;2.85;;;2.60;;
80229;SDS011;69540;42.136;24.742;2024-01-16T16:52:03;3.13;;;2.80;;
80229;SDS011;69540;42.136;24.742;2024-01-16T16:55:45;4.05;;;3.42;;
80229;SDS011;69540;42.136;24.742;2024-01-16T16:58:11;3.60;;;3.30;;
80229;SDS011;69540;42.136;24.742;2024-01-16T17:00:37;5.25;;;3.60;;
80229;SDS011;69540;42.136;24.742;2024-01-16T17:03:04;4.38;;;3.45;;
80229;SDS011;69540;42.136;24.742;2024-01-16T17:05:29;4.28;;;3.30;;
80229;SDS011;69540;42.136;24.742;2024-01-16T17:07:55;4.53;;;3.65;;
80229;SDS011;69540;42.136;24.742;2024-01-16T17:10:21;5.78;;;3.97;;
80229;SDS011;69540;42.136;24.742;2024-01-16T17:12:47;6.07;;;4.25;;
80229;SDS011;69540;42.136;24.742;2024-01-16T17:15:13;8.15;;;5.43;;
80229;SDS011;69540;42.136;24.742;2024-01-16T17:17:39;6.70;;;5.07;;
80229;SDS011;69540;42.136;24.742;2024-01-16T17:20:06;5.68;;;4.78;;
80229;SDS011;69540;42.136;24.742;2024-01-16T17:22:38;7.67;;;5.23;;
80229;SDS011;69540;42.136;24.742;2024-01-16T17:25:04;9.35;;;4.93;;
80229;SDS011;69540;42.136;24.742;2024-01-16T17:27:31;6.43;;;4.72;;
80229;SDS011;69540;42.136;24.742;2024-01-16T17:29:57;6.85;;;4.93;;
80229;SDS011;69540;42.136;24.742;2024-01-16T17:32:22;7.25;;;5.18;;
80229;SDS011;69540;42.136;24.742;2024-01-16T17:34:48;6.93;;;4.90;;
80229;SDS011;69540;42.136;24.742;2024-01-16T17:37:14;6.97;;;5.43;;
80229;SDS011;69540;42.136;24.742;2024-01-16T17:39:40;9.65;;;5.72;;
80229;SDS011;69540;42.136;24.742;2024-01-16T17:42:08;8.75;;;5.63;;
80229;SDS011;69540;42.136;24.742;2024-01-16T17:44:45;10.15;;;6.25;;
80229;SDS011;69540;42.136;24.742;2024-01-16T17:47:14;8.50;;;5.43;;
80229;SDS011;69540;42.136;24.742;2024-01-16T17:49:39;9.32;;;5.57;;
80229;SDS011;69540;42.136;24.742;2024-01-16T17:52:05;11.55;;;6.30;;
80229;SDS011;69540;42.136;24.742;2024-01-16T17:54:43;9.18;;;5.45;;
80229;SDS011;69540;42.136;24.742;2024-01-16T17:57:09;8.40;;;5.40;;
80229;SDS011;69540;42.136;24.742;2024-01-16T17:59:38;11.45;;;5.97;;
80229;SDS011;69540;42.136;24.742;2024-01-16T18:02:07;10.50;;;5.90;;
80229;SDS011;69540;42.136;24.742;2024-01-16T18:04:35;8.18;;;4.95;;
80229;SDS011;69540;42.136;24.742;2024-01-16T18:07:03;6.93;;;5.35;;
80229;SDS011;69540;42.136;24.742;2024-01-16T18:09:30;6.38;;;5.13;;
80229;SDS011;69540;42.136;24.742;2024-01-16T18:11:56;6.22;;;4.80;;
80229;SDS011;69540;42.136;24.742;2024-01-16T18:14:23;10.48;;;5.80;;
80229;SDS011;69540;42.136;24.742;2024-01-16T18:16:53;8.50;;;5.40;;
80229;SDS011;69540;42.136;24.742;2024-01-16T18:19:19;8.73;;;5.72;;
80229;SDS011;69540;42.136;24.742;2024-01-16T18:21:49;11.80;;;6.18;;
80229;SDS011;69540;42.136;24.742;2024-01-16T18:24:15;8.70;;;5.57;;
80229;SDS011;69540;42.136;24.742;2024-01-16T18:26:42;7.05;;;5.05;;
80229;SDS011;69540;42.136;24.742;2024-01-16T18:29:09;10.13;;;5.15;;
80229;SDS011;69540;42.136;24.742;2024-01-16T18:31:36;7.38;;;5.13;;
80229;SDS011;69540;42.136;24.742;2024-01-16T18:34:02;8.27;;;5.57;;
80229;SDS011;69540;42.136;24.742;2024-01-16T18:36:30;9.02;;;6.10;;
80229;SDS011;69540;42.136;24.742;2024-01-16T18:38:55;8.23;;;6.43;;
80229;SDS011;69540;42.136;24.742;2024-01-16T18:41:21;10.90;;;6.75;;
80229;SDS011;69540;42.136;24.742;2024-01-16T18:43:47;12.15;;;6.70;;
80229;SDS011;69540;42.136;24.742;2024-01-16T18:46:14;11.30;;;7.00;;
80229;SDS011;69540;42.136;24.742;2024-01-16T18:48:40;10.77;;;6.68;;
80229;SDS011;69540;42.136;24.742;2024-01-16T18:51:07;11.88;;;7.30;;
80229;SDS011;69540;42.136;24.742;2024-01-16T18:53:33;10.65;;;6.93;;
80229;SDS011;69540;42.136;24.742;2024-01-16T18:55:59;10.35;;;6.47;;
80229;SDS011;69540;42.136;24.742;2024-01-16T18:58:25;10.63;;;6.55;;
80229;SDS011;69540;42.136;24.742;2024-01-16T19:00:50;10.85;;;6.53;;
80229;SDS011;69540;42.136;24.742;2024-01-16T19:03:21;9.32;;;6.00;;
80229;SDS011;69540;42.136;24.742;2024-01-16T19:05:47;10.98;;;5.68;;
80229;SDS011;69540;42.136;24.742;2024-01-16T19:08:13;9.10;;;5.78;;
80229;SDS011;69540;42.136;24.742;2024-01-16T19:10:41;8.30;;;5.65;;
80229;SDS011;69540;42.136;24.742;2024-01-16T19:13:06;8.98;;;5.38;;
80229;SDS011;69540;42.136;24.742;2024-01-16T19:15:34;11.18;;;5.90;;
80229;SDS011;69540;42.136;24.742;2024-01-16T19:18:00;8.38;;;5.57;;
80229;SDS011;69540;42.136;24.742;2024-01-16T19:20:26;7.10;;;5.00;;
80229;SDS011;69540;42.136;24.742;2024-01-16T19:22:53;10.25;;;5.53;;
80229;SDS011;69540;42.136;24.742;2024-01-16T19:25:19;6.25;;;4.97;;
80229;SDS011;69540;42.136;24.742;2024-01-16T19:27:46;6.72;;;5.22;;
80229;SDS011;69540;42.136;24.742;2024-01-16T19:30:15;6.65;;;5.30;;
80229;SDS011;69540;42.136;24.742;2024-01-16T19:32:44;6.70;;;4.93;;
80229;SDS011;69540;42.136;24.742;2024-01-16T19:35:11;6.28;;;4.43;;
80229;SDS011;69540;42.136;24.742;2024-01-16T19:37:37;6.90;;;4.80;;
80229;SDS011;69540;42.136;24.742;2024-01-16T19:40:04;5.95;;;4.68;;
80229;SDS011;69540;42.136;24.742;2024-01-16T19:42:36;5.95;;;4.80;;
80229;SDS011;69540;42.136;24.742;2024-01-16T19:45:02;6.65;;;4.55;;
80229;SDS011;69540;42.136;24.742;2024-01-16T19:47:28;6.72;;;4.53;;
80229;SDS011;69540;42.136;24.742;2024-01-16T19:49:55;5.47;;;4.43;;
80229;SDS011;69540;42.136;24.742;2024-01-16T19:52:20;6.93;;;5.15;;
80229;SDS011;69540;42.136;24.742;2024-01-16T19:54:46;5.65;;;4.90;;
80229;SDS011;69540;42.136;24.742;2024-01-16T19:57:12;8.05;;;5.57;;
80229;SDS011;69540;42.136;24.742;2024-01-16T19:59:38;7.88;;;6.20;;
80229;SDS011;69540;42.136;24.742;2024-01-16T20:02:04;7.35;;;6.07;;
80229;SDS011;69540;42.136;24.742;2024-01-16T20:04:33;6.35;;;5.75;;
80229;SDS011;69540;42.136;24.742;2024-01-16T20:06:59;7.15;;;5.88;;
80229;SDS011;69540;42.136;24.742;2024-01-16T20:09:24;6.75;;;5.40;;
80229;SDS011;69540;42.136;24.742;2024-01-16T20:11:51;5.70;;;5.13;;
80229;SDS011;69540;42.136;24.742;2024-01-16T20:14:17;5.80;;;5.28;;
80229;SDS011;69540;42.136;24.742;2024-01-16T20:16:43;6.05;;;5.38;;
80229;SDS011;69540;42.136;24.742;2024-01-16T20:19:08;5.55;;;4.93;;
80229;SDS011;69540;42.136;24.742;2024-01-16T20:21:35;6.72;;;5.00;;
80229;SDS011;69540;42.136;24.742;2024-01-16T20:24:00;6.18;;;5.05;;
80229;SDS011;69540;42.136;24.742;2024-01-16T20:26:27;5.30;;;4.53;;
80229;SDS011;69540;42.136;24.742;2024-01-16T20:28:53;6.20;;;4.60;;
80229;SDS011;69540;42.136;24.742;2024-01-16T20:31:19;5.55;;;4.80;;
80229;SDS011;69540;42.136;24.742;2024-01-16T20:33:45;6.07;;;4.85;;
80229;SDS011;69540;42.136;24.742;2024-01-16T20:36:16;5.88;;;5.03;;
80229;SDS011;69540;42.136;24.742;2024-01-16T20:38:44;7.72;;;5.20;;
80229;SDS011;69540;42.136;24.742;2024-01-16T20:41:11;5.40;;;4.35;;
80229;SDS011;69540;42.136;24.742;2024-01-16T20:43:37;8.50;;;5.30;;
80229;SDS011;69540;42.136;24.742;2024-01-16T20:46:03;9.80;;;6.90;;
80229;SDS011;69540;42.136;24.742;2024-01-16T20:48:30;9.35;;;6.35;;
80229;SDS011;69540;42.136;24.742;2024-01-16T20:50:57;8.35;;;6.40;;
80229;SDS011;69540;42.136;24.742;2024-01-16T20:53:24;7.88;;;6.20;;
80229;SDS011;69540;42.136;24.742;2024-01-16T20:55:52;6.57;;;5.05;;
80229;SDS011;69540;42.136;24.742;2024-01-16T20:58:19;8.18;;;5.32;;
80229;SDS011;69540;42.136;24.742;2024-01-16T21:00:45;6.40;;;5.18;;
80229;SDS011;69540;42.136;24.742;2024-01-16T21:03:12;7.93;;;5.68;;
80229;SDS011;69540;42.136;24.742;2024-01-16T21:05:43;8.45;;;5.65;;
80229;SDS011;69540;42.136;24.742;2024-01-16T21:08:19;6.95;;;6.05;;
80229;SDS011;69540;42.136;24.742;2024-01-16T21:10:46;6.97;;;5.50;;
80229;SDS011;69540;42.136;24.742;2024-01-16T21:13:14;7.18;;;5.63;;
80229;SDS011;69540;42.136;24.742;2024-01-16T21:15:40;7.38;;;5.68;;
80229;SDS011;69540;42.136;24.742;2024-01-16T21:18:06;7.03;;;5.18;;
80229;SDS011;69540;42.136;24.742;2024-01-16T21:20:33;6.07;;;5.20;;
80229;SDS011;69540;42.136;24.742;2024-01-16T21:23:02;7.28;;;5.43;;
80229;SDS011;69540;42.136;24.742;2024-01-16T21:25:30;8.05;;;5.60;;
80229;SDS011;69540;42.136;24.742;2024-01-16T21:27:56;7.68;;;5.80;;
80229;SDS011;69540;42.136;24.742;2024-01-16T21:30:22;6.32;;;5.35;;
80229;SDS011;69540;42.136;24.742;2024-01-16T21:32:51;6.53;;;5.72;;
80229;SDS011;69540;42.136;24.742;2024-01-16T21:35:20;7.53;;;5.72;;
80229;SDS011;69540;42.136;24.742;2024-01-16T21:37:46;5.82;;;5.07;;
80229;SDS011;69540;42.136;24.742;2024-01-16T21:40:12;5.40;;;4.80;;
80229;SDS011;69540;42.136;24.742;2024-01-16T21:42:38;6.78;;;5.30;;
80229;SDS011;69540;42.136;24.742;2024-01-16T21:45:04;6.88;;;5.53;;
80229;SDS011;69540;42.136;24.742;2024-01-16T21:47:33;6.82;;;5.28;;
80229;SDS011;69540;42.136;24.742;2024-01-16T21:49:59;5.75;;;4.78;;
80229;SDS011;69540;42.136;24.742;2024-01-16T21:52:24;7.38;;;5.30;;
80229;SDS011;69540;42.136;24.742;2024-01-16T21:54:50;6.18;;;5.10;;
80229;SDS011;69540;42.136;24.742;2024-01-16T21:57:16;6.03;;;5.00;;
80229;SDS011;69540;42.136;24.742;2024-01-16T21:59:42;7.03;;;5.28;;
80229;SDS011;69540;42.136;24.742;2024-01-16T22:02:08;6.38;;;5.50;;
80229;SDS011;69540;42.136;24.742;2024-01-16T22:04:38;7.68;;;5.72;;
80229;SDS011;69540;42.136;24.742;2024-01-16T22:07:04;7.60;;;5.90;;
80229;SDS011;69540;42.136;24.742;2024-01-16T22:09:30;6.72;;;5.60;;
80229;SDS011;69540;42.136;24.742;2024-01-16T22:11:56;9.07;;;6.18;;
80229;SDS011;69540;42.136;24.742;2024-01-16T22:14:23;7.18;;;6.28;;
80229;SDS011;69540;42.136;24.742;2024-01-16T22:16:49;7.57;;;5.70;;
80229;SDS011;69540;42.136;24.742;2024-01-16T22:19:15;8.55;;;6.07;;
80229;SDS011;69540;42.136;24.742;2024-01-16T22:21:40;7.65;;;6.47;;
80229;SDS011;69540;42.136;24.742;2024-01-16T22:24:06;7.35;;;5.72;;
80229;SDS011;69540;42.136;24.742;2024-01-16T22:26:32;8.05;;;6.10;;
80229;SDS011;69540;42.136;24.742;2024-01-16T22:28:58;9.98;;;6.57;;
80229;SDS011;69540;42.136;24.742;2024-01-16T22:31:24;10.05;;;6.45;;
80229;SDS011;69540;42.136;24.742;2024-01-16T22:33:50;8.05;;;6.35;;
80229;SDS011;69540;42.136;24.742;2024-01-16T22:36:16;10.07;;;6.97;;
80229;SDS011;69540;42.136;24.742;2024-01-16T22:38:42;8.15;;;6.32;;
80229;SDS011;69540;42.136;24.742;2024-01-16T22:41:10;8.23;;;6.45;;
80229;SDS011;69540;42.136;24.742;2024-01-16T22:43:36;6.47;;;5.85;;
80229;SDS011;69540;42.136;24.742;2024-01-16T22:46:02;7.68;;;6.03;;
80229;SDS011;69540;42.136;24.742;2024-01-16T22:48:28;8.95;;;6.38;;
80229;SDS011;69540;42.136;24.742;2024-01-16T22:50:55;8.05;;;6.82;;
80229;SDS011;69540;42.136;24.742;2024-01-16T22:53:21;8.07;;;6.20;;
80229;SDS011;69540;42.136;24.742;2024-01-16T22:55:47;8.95;;;6.90;;
80229;SDS011;69540;42.136;24.742;2024-01-16T22:58:17;9.45;;;6.15;;
80229;SDS011;69540;42.136;24.742;2024-01-16T23:00:42;8.52;;;6.90;;
80229;SDS011;69540;42.136;24.742;2024-01-16T23:03:09;7.97;;;6.93;;
80229;SDS011;69540;42.136;24.742;2024-01-16T23:05:36;10.23;;;7.93;;
80229;SDS011;69540;42.136;24.742;2024-01-16T23:08:04;10.18;;;7.43;;
80229;SDS011;69540;42.136;24.742;2024-01-16T23:10:35;8.02;;;6.97;;
80229;SDS011;69540;42.136;24.742;2024-01-16T23:13:01;11.18;;;7.65;;
80229;SDS011;69540;42.136;24.742;2024-01-16T23:15:27;8.70;;;7.72;;
80229;SDS011;69540;42.136;24.742;2024-01-16T23:17:53;10.77;;;7.38;;
80229;SDS011;69540;42.136;24.742;2024-01-16T23:20:19;9.50;;;7.90;;
80229;SDS011;69540;42.136;24.742;2024-01-16T23:22:45;11.32;;;8.00;;
80229;SDS011;69540;42.136;24.742;2024-01-16T23:25:12;10.32;;;7.88;;
80229;SDS011;69540;42.136;24.742;2024-01-16T23:27:38;9.77;;;7.93;;
80229;SDS011;69540;42.136;24.742;2024-01-16T23:30:06;9.90;;;7.82;;
80229;SDS011;69540;42.136;24.742;2024-01-16T23:32:33;10.27;;;7.90;;
80229;SDS011;69540;42.136;24.742;2024-01-16T23:34:59;10.20;;;7.50;;
80229;SDS011;69540;42.136;24.742;2024-01-16T23:37:25;10.73;;;7.90;;
80229;SDS011;69540;42.136;24.742;2024-01-16T23:39:55;11.30;;;7.93;;
80229;SDS011;69540;42.136;24.742;2024-01-16T23:42:24;11.40;;;8.32;;
80229;SDS011;69540;42.136;24.742;2024-01-16T23:44:51;12.18;;;8.32;;
80229;SDS011;69540;42.136;24.742;2024-01-16T23:47:18;10.32;;;7.95;;
80229;SDS011;69540;42.136;24.742;2024-01-16T23:49:44;10.35;;;7.72;;
80229;SDS011;69540;42.136;24.742;2024-01-16T23:52:11;9.75;;;7.90;;
80229;SDS011;69540;42.136;24.742;2024-01-16T23:54:38;11.43;;;8.45;;
80229;SDS011;69540;42.136;24.742;2024-01-16T23:57:04;10.70;;;8.50;;
80229;SDS011;69540;42.136;24.742;2024-01-16T23:59:31;11.57;;;8.30;;
